Time;durP1;ratioP1;P1;durP2;ratioP2;P2;SDS_P1;SDS_P2;PMS_P1;PMS_P2;Temp;Humidity;BMP_temperature;BMP_pressure;BME280_temperature;BME280_humidity;BME280_pressure;Samples;Min_cycle;Max_cycle;Signal;HPM_P1;HPM_P2
2024/03/03 00:01:58;;;;;;;4.35;2.70;;;9.40;99.90;;;;;;5060872;28;20083;-80
2024/03/03 00:04:24;;;;;;;2.38;1.27;;;9.40;99.90;;;;;;5054026;28;20170;-80
2024/03/03 00:06:50;;;;;;;0.80;0.52;;;9.50;99.90;;;;;;5061488;28;20043;-80
2024/03/03 00:09:17;;;;;;;2.53;1.00;;;9.50;99.90;;;;;;5054825;28;20036;-80
2024/03/03 00:11:43;;;;;;;2.28;0.98;;;9.60;99.90;;;;;;5058436;28;20086;-81
2024/03/03 00:14:09;;;;;;;3.33;1.27;;;9.60;99.90;;;;;;5062841;28;20072;-80
2024/03/03 00:16:40;;;;;;;1.75;0.77;;;9.60;99.90;;;;;;5056779;28;20036;-80
2024/03/03 00:19:05;;;;;;;1.48;0.90;;;9.60;99.90;;;;;;5059885;28;20373;-81
2024/03/03 00:21:31;;;;;;;1.90;1.35;;;9.70;99.90;;;;;;5076628;28;20035;-80
2024/03/03 00:23:57;;;;;;;1.98;0.90;;;9.70;99.90;;;;;;5037661;28;20499;-81
2024/03/03 00:26:23;;;;;;;2.45;1.45;;;9.70;99.90;;;;;;5059856;28;20071;-80
2024/03/03 00:28:49;;;;;;;1.90;1.48;;;9.70;99.90;;;;;;5052022;28;20040;-80
2024/03/03 00:31:16;;;;;;;1.00;0.68;;;9.80;99.90;;;;;;5056719;28;20122;-81
2024/03/03 00:33:42;;;;;;;4.13;0.95;;;9.70;99.90;;;;;;5056594;28;20045;-82
2024/03/03 00:36:09;;;;;;;2.45;0.95;;;9.80;99.90;;;;;;5069617;28;20128;-78
2024/03/03 00:38:36;;;;;;;2.03;1.48;;;9.80;99.90;;;;;;5061431;28;20036;-82
2024/03/03 00:41:03;;;;;;;1.73;1.10;;;9.90;99.90;;;;;;5077368;28;20074;-82
2024/03/03 00:43:28;;;;;;;2.10;0.82;;;9.90;99.90;;;;;;5062560;28;20033;-82
2024/03/03 00:45:54;;;;;;;3.05;0.93;;;10.00;99.90;;;;;;5059036;28;20101;-82
2024/03/03 00:48:20;;;;;;;1.92;1.00;;;10.00;99.90;;;;;;5042961;28;20040;-81
2024/03/03 00:50:45;;;;;;;3.15;1.45;;;10.00;99.90;;;;;;5041576;28;20039;-82
2024/03/03 00:53:11;;;;;;;1.25;1.08;;;10.10;99.90;;;;;;5054181;28;20546;-80
2024/03/03 00:55:37;;;;;;;2.50;0.80;;;10.10;99.90;;;;;;5029496;28;20072;-81
2024/03/03 00:58:04;;;;;;;1.60;1.20;;;10.10;99.90;;;;;;5048485;28;20120;-81
2024/03/03 01:00:30;;;;;;;2.67;1.08;;;10.10;99.90;;;;;;5035236;28;20558;-81
2024/03/03 01:02:56;;;;;;;2.60;1.35;;;10.10;99.90;;;;;;5050346;28;20079;-81
2024/03/03 01:05:21;;;;;;;2.45;1.10;;;10.20;99.90;;;;;;5032370;28;20032;-81
2024/03/03 01:07:47;;;;;;;2.47;1.80;;;10.20;99.90;;;;;;5050281;28;20448;-81
2024/03/03 01:10:13;;;;;;;2.00;1.13;;;10.20;99.90;;;;;;5036979;28;20571;-81
2024/03/03 01:12:39;;;;;;;2.75;1.67;;;10.20;99.90;;;;;;5048301;28;20105;-81
2024/03/03 01:15:05;;;;;;;2.47;0.98;;;10.20;99.90;;;;;;5048568;28;20040;-82
2024/03/03 01:17:31;;;;;;;1.33;0.80;;;10.20;99.90;;;;;;5063264;28;20064;-81
2024/03/03 01:19:57;;;;;;;3.00;1.48;;;10.20;99.90;;;;;;5047717;28;20125;-81
2024/03/03 01:22:22;;;;;;;1.63;1.15;;;10.20;99.90;;;;;;5051233;28;20082;-81
2024/03/03 01:24:48;;;;;;;3.40;1.13;;;10.20;99.90;;;;;;5049415;28;20423;-81
2024/03/03 01:27:15;;;;;;;2.92;1.08;;;10.20;99.90;;;;;;5027000;28;20036;-81
2024/03/03 01:29:41;;;;;;;1.63;1.00;;;10.20;99.90;;;;;;5046729;28;20325;-81
2024/03/03 01:32:08;;;;;;;2.90;1.73;;;10.20;99.90;;;;;;5050438;28;20062;-81
2024/03/03 01:34:35;;;;;;;3.05;1.20;;;10.20;99.90;;;;;;5030830;28;20071;-81
2024/03/03 01:37:00;;;;;;;2.45;1.30;;;10.20;99.90;;;;;;5050530;28;20040;-81
2024/03/03 01:39:26;;;;;;;2.80;1.23;;;10.20;99.90;;;;;;5047939;28;20040;-81
2024/03/03 01:41:52;;;;;;;2.63;1.70;;;10.20;99.90;;;;;;5035131;28;20041;-82
2024/03/03 01:44:17;;;;;;;1.85;1.10;;;10.20;99.90;;;;;;5046878;28;20051;-82
2024/03/03 01:46:44;;;;;;;1.25;1.00;;;10.10;99.90;;;;;;5047521;28;20429;-80
2024/03/03 01:49:15;;;;;;;3.53;1.58;;;10.20;99.90;;;;;;5035318;28;20132;-81
2024/03/03 01:51:43;;;;;;;1.75;1.15;;;10.20;99.90;;;;;;5051383;28;20101;-81
2024/03/03 01:54:09;;;;;;;2.60;1.80;;;10.20;99.90;;;;;;5065612;28;20109;-80
2024/03/03 01:56:37;;;;;;;2.20;1.67;;;10.20;99.90;;;;;;5072120;28;20052;-81
2024/03/03 01:59:05;;;;;;;3.17;1.40;;;10.20;99.90;;;;;;5089733;28;20032;-81
2024/03/03 02:01:32;;;;;;;3.33;1.25;;;10.20;99.90;;;;;;5068829;28;20040;-81
2024/03/03 02:03:57;;;;;;;2.78;1.70;;;10.20;99.90;;;;;;5104877;28;20042;-81
2024/03/03 02:06:29;;;;;;;1.88;1.05;;;10.20;99.90;;;;;;5086538;28;20107;-82
2024/03/03 02:08:56;;;;;;;2.55;1.70;;;10.20;99.90;;;;;;5088676;28;20051;-80
2024/03/03 02:11:22;;;;;;;4.03;1.65;;;10.20;99.90;;;;;;5085386;28;20071;-80
2024/03/03 02:13:48;;;;;;;4.97;1.50;;;10.20;99.90;;;;;;5091150;28;20067;-81
2024/03/03 02:16:13;;;;;;;3.75;1.27;;;10.20;99.90;;;;;;5087431;28;20036;-80
2024/03/03 02:18:39;;;;;;;3.38;1.60;;;10.10;99.90;;;;;;5086959;28;20097;-80
2024/03/03 02:21:05;;;;;;;2.45;1.40;;;10.20;99.90;;;;;;5088881;28;20036;-81
2024/03/03 02:23:30;;;;;;;2.08;1.42;;;10.20;99.90;;;;;;5085528;28;20032;-80
2024/03/03 02:25:56;;;;;;;4.18;1.83;;;10.10;99.90;;;;;;5088882;28;20138;-80
2024/03/03 02:28:24;;;;;;;2.22;1.42;;;10.10;99.90;;;;;;5069939;28;20036;-81
2024/03/03 02:30:50;;;;;;;5.85;1.38;;;10.00;99.90;;;;;;5088999;28;20044;-81
2024/03/03 02:33:16;;;;;;;2.47;0.93;;;10.00;99.90;;;;;;5071737;28;20085;-80
2024/03/03 02:35:41;;;;;;;5.63;2.00;;;10.00;99.90;;;;;;5081829;28;20115;-79
2024/03/03 02:38:07;;;;;;;2.45;1.58;;;9.90;99.90;;;;;;5101023;28;20066;-80
2024/03/03 02:40:33;;;;;;;3.30;1.70;;;9.90;99.90;;;;;;5090626;28;20040;-82
2024/03/03 02:43:00;;;;;;;3.28;1.15;;;9.90;99.90;;;;;;5087321;28;20395;-82
2024/03/03 02:45:26;;;;;;;3.70;1.00;;;10.00;99.90;;;;;;5090791;28;20051;-80
2024/03/03 02:47:53;;;;;;;2.28;1.52;;;10.00;99.90;;;;;;5084912;28;20086;-81
2024/03/03 02:50:20;;;;;;;3.58;1.30;;;9.90;99.90;;;;;;5072110;28;20105;-81
2024/03/03 02:52:46;;;;;;;4.65;1.70;;;9.90;99.90;;;;;;5090066;28;20392;-82
2024/03/03 02:55:12;;;;;;;3.80;2.70;;;9.90;99.90;;;;;;5089225;28;20135;-81
2024/03/03 02:57:39;;;;;;;1.88;1.30;;;9.90;99.90;;;;;;5089297;28;20048;-78
2024/03/03 03:00:05;;;;;;;1.80;1.15;;;9.90;99.90;;;;;;5087621;28;20123;-83
2024/03/03 03:02:31;;;;;;;2.42;1.58;;;9.90;99.90;;;;;;5070671;28;20119;-80
2024/03/03 03:04:57;;;;;;;5.00;1.75;;;9.90;99.90;;;;;;5086424;28;20474;-80
2024/03/03 03:07:23;;;;;;;2.30;1.45;;;9.90;99.90;;;;;;5086124;28;20035;-81
2024/03/03 03:09:50;;;;;;;3.95;2.03;;;9.90;99.90;;;;;;5084995;28;20092;-82
2024/03/03 03:12:16;;;;;;;5.03;2.42;;;9.90;99.90;;;;;;5088775;28;20040;-82
2024/03/03 03:14:42;;;;;;;2.47;1.88;;;9.90;99.90;;;;;;5085503;28;20036;-80
2024/03/03 03:17:07;;;;;;;5.28;2.13;;;9.90;99.90;;;;;;5085787;28;20093;-82
2024/03/03 03:19:33;;;;;;;4.15;2.35;;;9.90;99.90;;;;;;5103005;28;20036;-81
2024/03/03 03:21:59;;;;;;;3.92;2.15;;;9.90;99.90;;;;;;5089674;28;20475;-82
2024/03/03 03:24:29;;;;;;;2.25;1.52;;;9.90;99.90;;;;;;5068470;28;20028;-80
2024/03/03 03:26:55;;;;;;;4.03;2.53;;;9.90;99.90;;;;;;5090083;28;20032;-81
2024/03/03 03:29:21;;;;;;;2.38;1.23;;;9.80;99.90;;;;;;5087987;28;20036;-81
2024/03/03 03:31:46;;;;;;;3.85;1.90;;;9.90;99.90;;;;;;5073072;28;20040;-80
2024/03/03 03:34:12;;;;;;;4.63;2.45;;;9.80;99.90;;;;;;5087561;28;20047;-80
2024/03/03 03:36:38;;;;;;;2.17;1.42;;;9.80;99.90;;;;;;5089245;28;20039;-80
2024/03/03 03:39:11;;;;;;;5.45;2.25;;;9.70;99.90;;;;;;5068894;28;20032;-81
2024/03/03 03:41:48;;;;;;;5.05;1.83;;;9.70;99.90;;;;;;5106790;28;20044;-81
2024/03/03 03:44:17;;;;;;;3.70;1.73;;;9.70;99.90;;;;;;5089126;28;20028;-80
2024/03/03 03:46:43;;;;;;;4.45;2.70;;;9.60;99.90;;;;;;5069791;28;20040;-79
2024/03/03 03:49:09;;;;;;;2.17;1.30;;;9.60;99.90;;;;;;5085210;28;20075;-80
2024/03/03 03:51:36;;;;;;;4.47;2.53;;;9.50;99.90;;;;;;5087184;28;20044;-80
2024/03/03 03:54:03;;;;;;;2.28;1.52;;;9.50;99.90;;;;;;5068510;28;20075;-80
2024/03/03 03:56:30;;;;;;;4.40;2.70;;;9.50;99.90;;;;;;5088016;28;20245;-81
2024/03/03 03:58:59;;;;;;;1.95;1.48;;;9.40;99.90;;;;;;5087807;28;20254;-81
2024/03/03 04:01:27;;;;;;;3.97;2.38;;;9.40;99.90;;;;;;5069593;28;20038;-80
2024/03/03 04:03:57;;;;;;;4.72;2.45;;;9.40;99.90;;;;;;5086526;28;20037;-79
2024/03/03 04:06:24;;;;;;;3.75;2.05;;;9.30;99.90;;;;;;5089367;28;20082;-80
2024/03/03 04:08:50;;;;;;;1.65;1.08;;;9.20;99.90;;;;;;5070708;28;20102;-79
2024/03/03 04:11:16;;;;;;;4.43;2.20;;;9.20;99.90;;;;;;5069704;28;20068;-79
2024/03/03 04:13:41;;;;;;;3.92;2.50;;;9.10;99.90;;;;;;5070840;28;20119;-80
2024/03/03 04:16:07;;;;;;;3.13;1.88;;;9.10;99.90;;;;;;5085591;28;20545;-81
2024/03/03 04:18:33;;;;;;;4.30;2.50;;;9.00;99.90;;;;;;5087734;28;20036;-80
2024/03/03 04:21:00;;;;;;;2.42;1.45;;;8.90;99.90;;;;;;5070200;28;20121;-81
2024/03/03 04:23:26;;;;;;;2.97;1.83;;;8.90;99.90;;;;;;5086163;28;20513;-80
2024/03/03 04:25:51;;;;;;;3.47;1.45;;;8.90;99.90;;;;;;5084874;28;20135;-80
2024/03/03 04:28:17;;;;;;;4.35;1.90;;;8.80;99.90;;;;;;5071735;28;20040;-80
2024/03/03 04:30:43;;;;;;;2.97;1.73;;;8.80;99.90;;;;;;5088880;28;20048;-81
2024/03/03 04:33:08;;;;;;;4.75;3.10;;;8.90;99.90;;;;;;5087544;28;20571;-81
2024/03/03 04:35:35;;;;;;;2.83;1.83;;;8.80;99.90;;;;;;5088099;28;20123;-81
2024/03/03 04:38:01;;;;;;;3.88;2.58;;;8.80;99.90;;;;;;5085088;28;20040;-80
2024/03/03 04:40:27;;;;;;;3.00;1.83;;;8.70;99.90;;;;;;5071567;28;20484;-80
2024/03/03 04:42:53;;;;;;;3.55;2.03;;;8.60;99.90;;;;;;5070426;28;20040;-81
2024/03/03 04:45:19;;;;;;;4.72;2.75;;;8.60;99.90;;;;;;5088286;28;20040;-81
2024/03/03 04:47:44;;;;;;;4.43;2.22;;;8.50;99.90;;;;;;5089167;28;20122;-81
2024/03/03 04:50:11;;;;;;;3.53;1.70;;;8.50;99.90;;;;;;5087966;28;20745;-81
2024/03/03 04:52:38;;;;;;;6.70;2.85;;;8.40;99.90;;;;;;5096210;28;20054;-80
2024/03/03 04:55:05;;;;;;;3.05;2.00;;;8.40;99.90;;;;;;5084005;28;20450;-80
2024/03/03 04:57:31;;;;;;;3.63;1.98;;;8.40;99.90;;;;;;5087729;28;20047;-80
2024/03/03 04:59:57;;;;;;;4.15;2.75;;;8.30;99.90;;;;;;5088061;28;20032;-80
2024/03/03 05:02:24;;;;;;;4.90;2.25;;;8.40;99.90;;;;;;5087738;28;20059;-79
2024/03/03 05:04:50;;;;;;;4.72;1.80;;;8.30;99.90;;;;;;5082533;28;20037;-81
2024/03/03 05:07:16;;;;;;;4.32;2.33;;;8.40;99.90;;;;;;5087992;28;20063;-81
2024/03/03 05:09:43;;;;;;;4.55;2.15;;;8.30;99.90;;;;;;5082584;28;20046;-80
2024/03/03 05:12:08;;;;;;;3.28;2.13;;;8.30;99.90;;;;;;5087751;28;20044;-81
2024/03/03 05:14:34;;;;;;;5.15;1.98;;;8.30;99.90;;;;;;5086106;28;20040;-81
2024/03/03 05:17:01;;;;;;;3.50;1.70;;;8.30;99.90;;;;;;5085570;28;20364;-81
2024/03/03 05:19:27;;;;;;;3.10;1.80;;;8.20;99.90;;;;;;5083478;28;20439;-81
2024/03/03 05:21:53;;;;;;;3.35;1.60;;;8.20;99.90;;;;;;5069896;28;20055;-80
2024/03/03 05:24:19;;;;;;;4.03;1.92;;;8.30;99.90;;;;;;5072677;28;20416;-81
2024/03/03 05:26:44;;;;;;;3.17;1.58;;;8.20;99.90;;;;;;5070026;28;20060;-81
2024/03/03 05:29:10;;;;;;;4.57;2.40;;;8.20;99.90;;;;;;5085653;28;20051;-82
2024/03/03 05:31:43;;;;;;;5.05;1.98;;;8.20;99.90;;;;;;5086376;28;20050;-81
2024/03/03 05:34:13;;;;;;;2.53;1.92;;;8.20;99.90;;;;;;5086567;28;20063;-80
2024/03/03 05:36:42;;;;;;;4.80;2.40;;;8.10;99.90;;;;;;5087570;28;20086;-82
2024/03/03 05:39:12;;;;;;;3.20;2.17;;;8.20;99.90;;;;;;5102045;28;20047;-82
2024/03/03 05:41:38;;;;;;;4.50;1.75;;;8.10;99.90;;;;;;5089881;28;20064;-82
2024/03/03 05:44:04;;;;;;;5.20;2.15;;;8.10;99.90;;;;;;5072493;28;20051;-80
2024/03/03 05:46:31;;;;;;;6.45;2.08;;;8.10;99.90;;;;;;5087444;28;20065;-81
2024/03/03 05:48:57;;;;;;;4.50;2.80;;;8.10;99.90;;;;;;5090223;28;20071;-80
2024/03/03 05:51:23;;;;;;;3.65;1.92;;;8.10;99.90;;;;;;5073017;28;20083;-80
2024/03/03 05:53:48;;;;;;;4.05;1.75;;;8.00;99.90;;;;;;5090769;28;20051;-80
2024/03/03 05:56:18;;;;;;;3.85;2.30;;;8.00;99.90;;;;;;5086951;28;20052;-80
2024/03/03 05:58:44;;;;;;;4.13;2.13;;;7.90;99.90;;;;;;5086504;28;20082;-80
2024/03/03 06:01:11;;;;;;;3.08;1.50;;;7.90;99.90;;;;;;5086439;28;20035;-81
2024/03/03 06:03:39;;;;;;;4.88;2.65;;;7.90;99.90;;;;;;5072970;28;20570;-81
2024/03/03 06:06:05;;;;;;;4.32;2.40;;;7.90;99.90;;;;;;5086203;28;20098;-81
2024/03/03 06:08:38;;;;;;;3.60;2.45;;;7.80;99.90;;;;;;5090249;28;20146;-81
2024/03/03 06:11:06;;;;;;;4.53;2.33;;;7.90;99.90;;;;;;5086334;28;20035;-81
2024/03/03 06:13:32;;;;;;;3.25;1.40;;;7.80;99.90;;;;;;5090706;28;20501;-82
2024/03/03 06:15:58;;;;;;;2.92;2.13;;;7.80;99.90;;;;;;5069734;28;20135;-81
2024/03/03 06:18:27;;;;;;;3.33;2.00;;;7.80;99.90;;;;;;5088672;28;20123;-80
2024/03/03 06:20:53;;;;;;;2.80;1.38;;;7.80;99.90;;;;;;5089037;28;20089;-80
2024/03/03 06:23:19;;;;;;;5.55;2.15;;;7.80;99.90;;;;;;5088105;28;20040;-80
2024/03/03 06:25:44;;;;;;;3.38;1.85;;;7.80;99.90;;;;;;5071686;28;20439;-80
2024/03/03 06:28:10;;;;;;;2.60;1.67;;;7.80;99.90;;;;;;5089757;28;20432;-81
2024/03/03 06:30:36;;;;;;;3.33;1.85;;;7.80;99.90;;;;;;5090185;28;20503;-80
2024/03/03 06:33:02;;;;;;;4.07;1.45;;;7.80;99.90;;;;;;5086176;28;20117;-80
2024/03/03 06:35:28;;;;;;;4.47;1.80;;;7.80;99.90;;;;;;5087306;28;20036;-81
2024/03/03 06:37:54;;;;;;;3.97;1.73;;;7.70;99.90;;;;;;5071966;28;20040;-80
2024/03/03 06:40:19;;;;;;;2.92;1.48;;;7.80;99.90;;;;;;5073133;28;20063;-81
2024/03/03 06:42:45;;;;;;;3.05;1.88;;;7.80;99.90;;;;;;5090209;28;20044;-81
2024/03/03 06:45:11;;;;;;;5.65;2.42;;;7.90;99.90;;;;;;5071978;28;20036;-82
2024/03/03 06:47:37;;;;;;;3.85;1.40;;;7.90;99.90;;;;;;5090332;28;20044;-80
2024/03/03 06:50:04;;;;;;;4.22;2.33;;;8.00;99.90;;;;;;5089168;28;20036;-80
2024/03/03 06:52:30;;;;;;;3.08;1.80;;;8.00;99.90;;;;;;5073048;28;20028;-82
2024/03/03 06:55:00;;;;;;;6.03;2.13;;;8.00;99.90;;;;;;5088897;28;20176;-81
2024/03/03 06:57:26;;;;;;;3.53;1.98;;;8.10;99.90;;;;;;5087487;28;20559;-82
2024/03/03 06:59:52;;;;;;;2.03;1.65;;;8.10;99.90;;;;;;5086843;28;20034;-81
2024/03/03 07:02:19;;;;;;;4.45;2.00;;;8.20;99.90;;;;;;5073267;28;20372;-83
2024/03/03 07:04:45;;;;;;;3.42;2.13;;;8.30;99.90;;;;;;5081021;28;20043;-81
2024/03/03 07:07:11;;;;;;;5.15;2.25;;;8.40;99.90;;;;;;5088516;28;20408;-81
2024/03/03 07:09:37;;;;;;;4.93;2.25;;;8.50;99.90;;;;;;5085084;28;20143;-81
2024/03/03 07:12:04;;;;;;;4.60;3.20;;;8.60;99.90;;;;;;5090555;28;20036;-78
2024/03/03 07:14:32;;;;;;;4.53;2.30;;;8.70;99.90;;;;;;5106590;28;20072;-80
2024/03/03 07:16:58;;;;;;;2.22;1.60;;;8.80;99.90;;;;;;5107252;28;20075;-80
2024/03/03 07:19:24;;;;;;;5.55;3.20;;;8.90;99.90;;;;;;5088596;28;20047;-81
2024/03/03 07:21:50;;;;;;;4.68;2.63;;;9.00;99.90;;;;;;5084678;28;20369;-81
2024/03/03 07:24:16;;;;;;;3.97;2.10;;;9.00;99.90;;;;;;5067198;28;20040;-81
2024/03/03 07:26:42;;;;;;;4.30;2.42;;;9.00;99.90;;;;;;5103939;28;20051;-81
2024/03/03 07:29:08;;;;;;;3.22;1.90;;;9.10;99.90;;;;;;5086990;28;20039;-81
2024/03/03 07:31:37;;;;;;;3.15;2.17;;;9.00;99.90;;;;;;5088199;28;20036;-82
2024/03/03 07:34:03;;;;;;;7.63;2.17;;;9.00;99.90;;;;;;5067990;28;20043;-81
2024/03/03 07:36:29;;;;;;;3.83;2.20;;;9.00;99.90;;;;;;5071591;28;20682;-77
2024/03/03 07:38:55;;;;;;;4.57;2.63;;;9.00;99.90;;;;;;5086199;28;20096;-81
2024/03/03 07:41:21;;;;;;;4.80;2.42;;;9.00;99.90;;;;;;5066574;28;20044;-84
2024/03/03 07:43:46;;;;;;;4.53;2.20;;;9.00;99.90;;;;;;5101391;28;20047;-81
2024/03/03 07:46:12;;;;;;;3.60;2.28;;;9.00;99.90;;;;;;5087956;28;20036;-81
2024/03/03 07:48:38;;;;;;;4.32;2.70;;;9.00;99.90;;;;;;5069830;28;20075;-81
2024/03/03 07:51:06;;;;;;;2.65;1.98;;;9.00;99.90;;;;;;5069050;28;20112;-81
2024/03/03 07:53:32;;;;;;;5.20;2.22;;;9.00;99.90;;;;;;5068429;28;20138;-81
2024/03/03 07:55:57;;;;;;;4.85;2.67;;;9.10;99.90;;;;;;5065568;28;20135;-81
2024/03/03 07:58:23;;;;;;;4.00;2.38;;;9.10;99.90;;;;;;5082786;28;20050;-81
2024/03/03 08:00:49;;;;;;;4.45;2.20;;;9.10;99.90;;;;;;5083189;28;20054;-81
2024/03/03 08:03:15;;;;;;;2.85;1.95;;;9.10;99.90;;;;;;5084968;28;20059;-81
2024/03/03 08:05:40;;;;;;;4.82;2.60;;;9.10;99.90;;;;;;5082419;28;20036;-82
2024/03/03 08:08:06;;;;;;;3.85;2.75;;;9.10;99.90;;;;;;5070758;28;20637;-81
2024/03/03 08:10:33;;;;;;;5.78;2.72;;;9.20;99.90;;;;;;5068978;28;20043;-81
2024/03/03 08:12:59;;;;;;;4.10;2.08;;;9.20;99.90;;;;;;5084470;28;20044;-82
2024/03/03 08:15:24;;;;;;;4.40;2.47;;;9.20;99.90;;;;;;5086960;28;20047;-82
2024/03/03 08:17:50;;;;;;;5.20;2.15;;;9.50;99.90;;;;;;5099842;28;20051;-83
2024/03/03 08:20:16;;;;;;;5.85;2.53;;;10.10;99.90;;;;;;5088797;28;20040;-83
2024/03/03 08:22:43;;;;;;;3.58;2.28;;;10.90;99.90;;;;;;5068538;28;20040;-84
2024/03/03 08:25:11;;;;;;;3.38;2.13;;;11.40;99.90;;;;;;5086600;28;20035;-83
2024/03/03 08:27:37;;;;;;;4.30;2.70;;;11.50;99.90;;;;;;5104081;28;20078;-84
2024/03/03 08:30:06;;;;;;;4.82;2.38;;;11.70;99.90;;;;;;5069465;28;20059;-84
2024/03/03 08:32:33;;;;;;;3.45;2.17;;;11.70;99.90;;;;;;5081315;28;20032;-84
2024/03/03 08:34:59;;;;;;;4.00;2.33;;;11.80;99.90;;;;;;5086108;28;20036;-85
2024/03/03 08:37:25;;;;;;;4.80;2.75;;;12.10;99.90;;;;;;5069694;28;20133;-85
2024/03/03 08:39:51;;;;;;;3.25;2.53;;;12.60;99.90;;;;;;5068451;28;20458;-84
2024/03/03 08:42:17;;;;;;;5.70;3.70;;;13.10;99.90;;;;;;5086654;28;20132;-85
2024/03/03 08:44:43;;;;;;;4.65;2.63;;;13.80;99.90;;;;;;5084169;28;20093;-84
2024/03/03 08:47:09;;;;;;;2.78;2.13;;;14.40;99.90;;;;;;5080373;28;20117;-85
2024/03/03 08:49:34;;;;;;;4.93;2.60;;;14.90;99.90;;;;;;5087159;28;20040;-85
2024/03/03 08:52:05;;;;;;;4.45;2.00;;;14.90;99.90;;;;;;5071570;28;20046;-85
2024/03/03 08:54:32;;;;;;;8.98;2.70;;;15.10;99.90;;;;;;5102906;28;20052;-85
2024/03/03 08:56:57;;;;;;;5.25;2.13;;;15.20;99.90;;;;;;5070477;28;20036;-84
2024/03/03 08:59:23;;;;;;;2.75;1.48;;;15.30;99.90;;;;;;5088143;28;20050;-84
2024/03/03 09:01:49;;;;;;;5.57;1.95;;;15.00;99.90;;;;;;5080480;28;20331;-84
2024/03/03 09:04:16;;;;;;;4.47;2.80;;;14.50;99.90;;;;;;5057988;28;20493;-84
2024/03/03 09:06:42;;;;;;;3.03;1.88;;;13.90;99.90;;;;;;5089797;28;20076;-86
2024/03/03 09:09:11;;;;;;;3.85;2.05;;;13.50;99.90;;;;;;5061937;28;20078;-86
2024/03/03 09:11:36;;;;;;;4.38;2.38;;;13.40;99.90;;;;;;5081767;28;20135;-86
2024/03/03 09:14:02;;;;;;;3.65;2.15;;;12.90;99.90;;;;;;5066663;28;20118;-83
2024/03/03 09:16:28;;;;;;;5.28;3.05;;;12.70;99.90;;;;;;5087762;28;20065;-85
2024/03/03 09:18:54;;;;;;;2.90;2.03;;;12.40;99.90;;;;;;5081272;28;20029;-84
2024/03/03 09:21:23;;;;;;;3.92;2.30;;;12.20;99.90;;;;;;5068633;28;20495;-85
2024/03/03 09:23:49;;;;;;;7.03;2.17;;;12.10;99.90;;;;;;5083823;28;20039;-84
2024/03/03 09:26:17;;;;;;;4.43;2.63;;;12.00;99.90;;;;;;5086281;28;20046;-83
2024/03/03 09:28:52;;;;;;;3.63;2.20;;;12.10;99.90;;;;;;5084623;28;20469;-83
2024/03/03 09:31:18;;;;;;;4.93;2.83;;;12.20;99.90;;;;;;5085026;28;20068;-85
2024/03/03 09:33:50;;;;;;;5.53;2.58;;;12.30;99.90;;;;;;5082173;28;20123;-78
2024/03/03 09:36:15;;;;;;;2.05;1.60;;;12.30;99.90;;;;;;5067272;28;20059;-83
2024/03/03 09:38:41;;;;;;;7.07;3.65;;;12.20;99.90;;;;;;5085252;28;20040;-84
2024/03/03 09:41:07;;;;;;;3.58;2.55;;;12.10;99.90;;;;;;5079132;28;20040;-83
2024/03/03 09:43:38;;;;;;;4.47;2.63;;;12.10;99.90;;;;;;5101745;28;20139;-86
2024/03/03 09:46:04;;;;;;;3.90;2.78;;;12.20;99.90;;;;;;5083920;28;20085;-84
2024/03/03 09:48:31;;;;;;;5.57;3.33;;;12.40;99.90;;;;;;5066382;28;20048;-86
2024/03/03 09:50:58;;;;;;;3.55;1.95;;;12.50;99.90;;;;;;5066618;28;20176;-84
2024/03/03 09:53:25;;;;;;;5.28;2.78;;;12.50;99.90;;;;;;5083700;28;20508;-85
2024/03/03 09:55:53;;;;;;;5.05;3.00;;;12.50;99.90;;;;;;5083374;28;20139;-84
2024/03/03 09:58:19;;;;;;;4.53;2.80;;;12.80;99.90;;;;;;5086211;28;20059;-85
2024/03/03 10:00:45;;;;;;;5.13;2.63;;;13.20;99.90;;;;;;5101741;28;20043;-85
2024/03/03 10:03:13;;;;;;;5.70;2.47;;;13.80;99.90;;;;;;5078809;28;20135;-87
2024/03/03 10:05:43;;;;;;;4.28;2.13;;;14.00;99.90;;;;;;5082962;28;20044;-83
2024/03/03 10:08:14;;;;;;;4.28;2.30;;;14.20;99.90;;;;;;5078584;28;20033;-87
2024/03/03 10:10:46;;;;;;;5.22;2.17;;;14.60;99.90;;;;;;5090763;28;20097;-92
2024/03/03 10:13:12;;;;;;;4.28;2.75;;;15.10;99.90;;;;;;5109565;28;20492;-92
2024/03/03 10:15:43;;;;;;;3.20;2.13;;;15.80;99.90;;;;;;5089433;28;20076;-88
2024/03/03 10:18:09;;;;;;;4.78;3.33;;;16.50;99.90;;;;;;5085587;28;20508;-79
2024/03/03 10:20:34;;;;;;;4.65;2.50;;;16.80;99.90;;;;;;5071330;28;20101;-82
2024/03/03 10:23:01;;;;;;;3.85;2.13;;;17.20;99.90;;;;;;5074656;28;20369;-84
2024/03/03 10:25:29;;;;;;;5.63;2.35;;;17.70;99.90;;;;;;5104967;28;20035;-81
2024/03/03 10:28:15;;;;;;;4.28;2.22;;;18.10;99.90;;;;;;5069192;28;20093;-81
2024/03/03 10:30:44;;;;;;;4.30;2.05;;;18.50;99.90;;;;;;5072962;28;20047;-81
2024/03/03 10:33:10;;;;;;;3.65;1.90;;;18.90;99.90;;;;;;5086956;28;20122;-81
2024/03/03 10:35:36;;;;;;;4.45;1.83;;;18.60;99.90;;;;;;5077754;28;20419;-81
2024/03/03 10:38:01;;;;;;;5.30;2.78;;;18.30;99.90;;;;;;5094005;28;20040;-81
2024/03/03 10:40:28;;;;;;;4.47;2.13;;;18.40;99.90;;;;;;5103636;28;20036;-78
2024/03/03 10:42:54;;;;;;;2.80;1.80;;;18.90;99.90;;;;;;5090831;28;20618;-81
2024/03/03 10:45:21;;;;;;;3.22;1.70;;;19.30;99.90;;;;;;5090126;28;20028;-81
2024/03/03 10:47:49;;;;;;;5.05;2.28;;;19.40;99.90;;;;;;5091572;28;20201;-75
2024/03/03 10:50:17;;;;;;;2.92;1.90;;;19.00;99.90;;;;;;5090356;28;20035;-76
2024/03/03 10:52:43;;;;;;;3.90;2.17;;;18.50;99.90;;;;;;5073243;28;20400;-78
2024/03/03 10:55:13;;;;;;;2.78;1.88;;;18.30;99.90;;;;;;5087834;28;20130;-75
2024/03/03 10:57:44;;;;;;;3.20;2.05;;;17.90;99.90;;;;;;5087278;28;20055;-76
2024/03/03 11:00:22;;;;;;;3.58;2.17;;;17.90;99.90;;;;;;5086756;28;20091;-76
2024/03/03 11:02:56;;;;;;;2.92;2.17;;;18.20;99.90;;;;;;5086718;28;20484;-83
2024/03/03 11:05:23;;;;;;;;;;;18.60;99.90;;;;;;5076543;28;20067;-80
2024/03/03 11:07:54;;;;;;;5.93;2.22;;;19.10;99.90;;;;;;5092544;28;20019;-80
2024/03/03 11:10:22;;;;;;;4.70;2.20;;;19.40;99.90;;;;;;5089809;28;20036;-79
2024/03/03 11:12:50;;;;;;;4.30;2.38;;;19.90;99.90;;;;;;5082813;28;20047;-78
2024/03/03 11:15:20;;;;;;;5.00;2.50;;;20.20;99.90;;;;;;5087044;28;20445;-80
2024/03/03 11:17:51;;;;;;;7.18;2.25;;;20.20;99.90;;;;;;5092127;28;20036;-80
2024/03/03 11:20:22;;;;;;;3.95;2.35;;;20.20;99.90;;;;;;5076390;28;20043;-81
2024/03/03 11:23:06;;;;;;;2.60;1.85;;;20.20;99.90;;;;;;5072856;28;20040;-82
2024/03/03 11:25:40;;;;;;;2.38;1.77;;;20.10;99.90;;;;;;5103592;28;20071;-82
2024/03/03 11:28:10;;;;;;;3.38;1.98;;;19.60;99.90;;;;;;5089902;28;20040;-82
2024/03/03 11:30:36;;;;;;;2.80;1.60;;;19.30;99.90;;;;;;5069635;28;20055;-83
2024/03/03 11:33:03;;;;;;;5.97;2.47;;;19.20;99.90;;;;;;5077285;28;20067;-82
2024/03/03 11:35:30;;;;;;;3.25;1.65;;;19.10;99.90;;;;;;5071863;28;20152;-82
2024/03/03 11:37:56;;;;;;;3.17;1.98;;;19.10;99.90;;;;;;5083632;28;20562;-83
2024/03/03 11:40:21;;;;;;;7.03;2.58;;;19.00;99.90;;;;;;5091926;28;20051;-84
2024/03/03 11:42:47;;;;;;;4.45;1.88;;;19.10;99.90;;;;;;5103598;28;20526;-83
2024/03/03 11:45:13;;;;;;;3.80;1.90;;;19.50;99.90;;;;;;5073286;28;20033;-83
2024/03/03 11:47:46;;;;;;;3.22;2.10;;;20.00;99.90;;;;;;5087651;28;20050;-82
2024/03/03 11:50:21;;;;;;;3.33;1.95;;;20.00;99.90;;;;;;5073994;28;20032;-81
2024/03/03 11:52:49;;;;;;;8.45;2.03;;;20.00;99.90;;;;;;5073390;28;20426;-79
2024/03/03 11:55:22;;;;;;;4.03;2.13;;;19.90;99.90;;;;;;5091100;28;20070;-85
2024/03/03 11:57:50;;;;;;;3.38;1.67;;;19.60;99.90;;;;;;5073520;28;20455;-82
2024/03/03 12:00:18;;;;;;;3.55;2.00;;;18.90;99.90;;;;;;5088864;28;20496;-82
2024/03/03 12:02:45;;;;;;;3.72;2.35;;;18.20;99.90;;;;;;5086748;28;20032;-83
2024/03/03 12:05:15;;;;;;;4.88;2.13;;;18.10;99.90;;;;;;5090760;28;20086;-84
2024/03/03 12:07:45;;;;;;;3.50;2.45;;;17.90;99.90;;;;;;5083807;28;20040;-83
2024/03/03 12:10:27;;;;;;;3.33;2.58;;;17.70;99.90;;;;;;5079171;28;20426;-85
2024/03/03 12:12:55;;;;;;;4.07;2.55;;;17.50;99.90;;;;;;5100252;28;20106;-82
2024/03/03 12:15:26;;;;;;;3.63;1.92;;;17.50;99.90;;;;;;5086240;28;20040;-82
2024/03/03 12:17:54;;;;;;;4.13;2.33;;;17.70;99.90;;;;;;5087281;28;20048;-82
2024/03/03 12:20:24;;;;;;;5.07;2.25;;;17.70;99.90;;;;;;5069481;28;20028;-82
2024/03/03 12:22:51;;;;;;;3.67;2.03;;;17.70;99.90;;;;;;5105495;28;20067;-82
2024/03/03 12:25:21;;;;;;;4.35;2.08;;;17.60;99.90;;;;;;5087377;28;20484;-85
2024/03/03 12:27:53;;;;;;;12.57;6.15;;;17.80;99.90;;;;;;5087273;28;20040;-83
2024/03/03 12:30:37;;;;;;;3.88;2.00;;;17.90;99.90;;;;;;5070516;28;20031;-82
2024/03/03 12:33:05;;;;;;;5.50;2.88;;;17.80;99.90;;;;;;5103039;28;20487;-81
2024/03/03 12:35:31;;;;;;;6.25;2.28;;;17.80;99.90;;;;;;5087848;28;20039;-77
2024/03/03 12:37:57;;;;;;;4.15;2.95;;;18.00;99.90;;;;;;5097406;28;20128;-81
2024/03/03 12:40:29;;;;;;;4.78;2.72;;;17.90;99.90;;;;;;5071362;28;20543;-80
2024/03/03 12:42:55;;;;;;;5.78;3.03;;;17.90;99.90;;;;;;5068446;28;20482;-80
2024/03/03 12:45:21;;;;;;;4.82;2.65;;;18.00;99.90;;;;;;5087287;28;20024;-80
2024/03/03 12:47:49;;;;;;;3.85;2.30;;;18.40;99.90;;;;;;5088555;28;20079;-80
2024/03/03 12:50:17;;;;;;;3.38;1.63;;;18.80;99.90;;;;;;5088381;28;20036;-81
2024/03/03 12:52:44;;;;;;;3.63;2.00;;;19.10;99.90;;;;;;5088637;28;20502;-80